Peace River Airport
CYPE : now visible

Airfield :











YOU CAN JOIN US ON...

 
LOGIN :

Register | Disclaimer

   EN    FR    IT 

 









Legend :    VFR   Marginal VFR   IFR   Intensive IFR   Very Intensive IFR
Visi :
Ceiling :
>= 8 km
>= 3000ft
5 to 8 km
1000 to 3000 ft
1500m to 5 km
500 to 1000 ft
800 to 1500m
200 to 500 ft
< 800m
< 200 ft
Symbols :   Thunderstorms  Fog  Heavy snow  Heavy precipitations  Wind > 20 kt






- Airport Elevation : 1873 ft
- IATA code : YPE


CYPE - Peace River

CURRENT METAR :
  • 232100Z 28017G28KT 15SM FEW050 SCT150 SCT230 22/09 A2987 RMK SC1AC2CI1 SLP122 DENSITY ALT 3200FT

EXPIRED METARs :
  • 232000Z 28020G33KT 15SM FEW150 SCT230 21/09 A2986 RMK AC1CI2 SLP119 DENSITY ALT 3100FT
  • 231900Z 27015G24KT 15SM FEW080 SCT150 BKN250 21/09 A2985 RMK AC1AC4CI2 AC TR SLP115 DENSITY ALT 3100FT

TAF TAF CYPE
Valid from the 23 at 19:00 until the 24 at 07:00 UTC


231838Z 2319/2407 28015G25KT P6SM SCT030 OVC100
TEMPO 2319/2404 5SM -SHRA BR BKN030 OVC080
BECMG 2400/2402 26012KT
FM240400 26008KT P6SM BKN080 RMK NXT FCST BY 240100Z
CZEG FIR / North America



MET'MAP, your aeronautical weather chart ! - Copyright ORBIFLY December 2007 - Disclaimer

ORBIFLY MET'MAP TEAM :

Programming & Development : Alexandra Zaïnal
Concept & original design : Baudouin d'Aumeries
Assistance for programming : Marc-Olivier Méhu
Technical & hardware support : Manuel Goepfert

Contact : metmap@orbifly.com




SOURCES & CREDITS :

   NOAA       Earth
Advisory